sensor_id;sensor_type;location;lat;lon;timestamp;P1;durP1;ratioP1;P2;durP2;ratioP2
1122;SDS011;548;48.778;9.252;2023-05-14T00:01:08;49.00;;;45.90;;
1122;SDS011;548;48.778;9.252;2023-05-14T00:03:34;49.53;;;46.47;;
1122;SDS011;548;48.778;9.252;2023-05-14T00:06:02;47.77;;;44.87;;
1122;SDS011;548;48.778;9.252;2023-05-14T00:08:31;48.00;;;45.10;;
1122;SDS011;548;48.778;9.252;2023-05-14T00:10:57;46.10;;;43.13;;
1122;SDS011;548;48.778;9.252;2023-05-14T00:13:24;46.33;;;43.50;;
1122;SDS011;548;48.778;9.252;2023-05-14T00:15:51;44.20;;;41.50;;
1122;SDS011;548;48.778;9.252;2023-05-14T00:18:17;43.33;;;40.73;;
1122;SDS011;548;48.778;9.252;2023-05-14T00:20:44;43.70;;;41.10;;
1122;SDS011;548;48.778;9.252;2023-05-14T00:23:11;44.60;;;41.47;;
1122;SDS011;548;48.778;9.252;2023-05-14T00:25:39;43.30;;;40.80;;
1122;SDS011;548;48.778;9.252;2023-05-14T00:28:05;46.33;;;43.43;;
1122;SDS011;548;48.778;9.252;2023-05-14T00:30:32;42.87;;;40.47;;
1122;SDS011;548;48.778;9.252;2023-05-14T00:32:59;44.53;;;41.83;;
1122;SDS011;548;48.778;9.252;2023-05-14T00:35:25;44.47;;;41.63;;
1122;SDS011;548;48.778;9.252;2023-05-14T00:37:52;44.00;;;41.30;;
1122;SDS011;548;48.778;9.252;2023-05-14T00:40:19;44.00;;;41.40;;
1122;SDS011;548;48.778;9.252;2023-05-14T00:42:48;44.90;;;41.87;;
1122;SDS011;548;48.778;9.252;2023-05-14T00:45:15;42.60;;;40.00;;
1122;SDS011;548;48.778;9.252;2023-05-14T00:47:42;42.80;;;40.10;;
1122;SDS011;548;48.778;9.252;2023-05-14T00:50:09;40.73;;;38.33;;
1122;SDS011;548;48.778;9.252;2023-05-14T00:52:37;41.20;;;38.53;;
1122;SDS011;548;48.778;9.252;2023-05-14T00:55:04;40.80;;;38.27;;
1122;SDS011;548;48.778;9.252;2023-05-14T00:57:32;41.60;;;38.83;;
1122;SDS011;548;48.778;9.252;2023-05-14T01:00:01;39.10;;;36.60;;
1122;SDS011;548;48.778;9.252;2023-05-14T01:02:29;40.47;;;37.80;;
1122;SDS011;548;48.778;9.252;2023-05-14T01:04:56;40.27;;;37.73;;
1122;SDS011;548;48.778;9.252;2023-05-14T01:07:24;41.97;;;39.27;;
1122;SDS011;548;48.778;9.252;2023-05-14T01:10:00;42.33;;;39.60;;
1122;SDS011;548;48.778;9.252;2023-05-14T01:12:28;41.73;;;39.13;;
1122;SDS011;548;48.778;9.252;2023-05-14T01:15:05;43.13;;;40.13;;
1122;SDS011;548;48.778;9.252;2023-05-14T01:17:38;42.07;;;39.27;;
1122;SDS011;548;48.778;9.252;2023-05-14T01:20:08;43.20;;;40.20;;
1122;SDS011;548;48.778;9.252;2023-05-14T01:22:37;43.57;;;40.77;;
1122;SDS011;548;48.778;9.252;2023-05-14T01:25:04;43.23;;;40.43;;
1122;SDS011;548;48.778;9.252;2023-05-14T01:27:34;43.23;;;40.10;;
1122;SDS011;548;48.778;9.252;2023-05-14T01:30:08;42.03;;;39.27;;
1122;SDS011;548;48.778;9.252;2023-05-14T01:32:42;41.53;;;38.93;;
1122;SDS011;548;48.778;9.252;2023-05-14T02:09:24;43.30;;;40.17;;
1122;SDS011;548;48.778;9.252;2023-05-14T02:11:50;44.33;;;41.43;;
1122;SDS011;548;48.778;9.252;2023-05-14T02:14:17;45.17;;;42.13;;
1122;SDS011;548;48.778;9.252;2023-05-14T02:16:44;42.63;;;39.73;;
1122;SDS011;548;48.778;9.252;2023-05-14T02:19:10;42.73;;;39.83;;
1122;SDS011;548;48.778;9.252;2023-05-14T02:21:37;44.43;;;41.37;;
1122;SDS011;548;48.778;9.252;2023-05-14T02:24:04;42.40;;;39.70;;
1122;SDS011;548;48.778;9.252;2023-05-14T02:26:32;45.90;;;42.70;;
1122;SDS011;548;48.778;9.252;2023-05-14T02:28:59;44.57;;;41.33;;
1122;SDS011;548;48.778;9.252;2023-05-14T02:31:25;43.53;;;40.20;;
1122;SDS011;548;48.778;9.252;2023-05-14T02:33:52;45.23;;;42.20;;
1122;SDS011;548;48.778;9.252;2023-05-14T02:36:19;43.67;;;40.47;;
1122;SDS011;548;48.778;9.252;2023-05-14T02:38:45;44.00;;;40.93;;
1122;SDS011;548;48.778;9.252;2023-05-14T02:41:12;42.60;;;39.60;;
1122;SDS011;548;48.778;9.252;2023-05-14T02:43:40;44.60;;;41.30;;
1122;SDS011;548;48.778;9.252;2023-05-14T02:46:07;41.50;;;38.70;;
1122;SDS011;548;48.778;9.252;2023-05-14T02:48:34;41.47;;;38.20;;
1122;SDS011;548;48.778;9.252;2023-05-14T02:51:00;40.67;;;37.87;;
1122;SDS011;548;48.778;9.252;2023-05-14T02:53:27;42.80;;;39.90;;
1122;SDS011;548;48.778;9.252;2023-05-14T02:55:54;41.70;;;38.80;;
1122;SDS011;548;48.778;9.252;2023-05-14T02:58:21;39.63;;;36.73;;
1122;SDS011;548;48.778;9.252;2023-05-14T03:00:49;38.23;;;35.73;;
1122;SDS011;548;48.778;9.252;2023-05-14T03:03:17;39.83;;;37.23;;
1122;SDS011;548;48.778;9.252;2023-05-14T03:05:44;39.93;;;37.03;;
1122;SDS011;548;48.778;9.252;2023-05-14T03:08:10;40.00;;;37.37;;
1122;SDS011;548;48.778;9.252;2023-05-14T03:10:37;40.77;;;38.13;;
1122;SDS011;548;48.778;9.252;2023-05-14T03:13:04;40.17;;;37.47;;
1122;SDS011;548;48.778;9.252;2023-05-14T03:15:31;37.10;;;34.80;;
1122;SDS011;548;48.778;9.252;2023-05-14T03:17:59;38.17;;;35.77;;
1122;SDS011;548;48.778;9.252;2023-05-14T03:20:25;37.63;;;35.07;;
1122;SDS011;548;48.778;9.252;2023-05-14T03:22:52;36.77;;;34.57;;
1122;SDS011;548;48.778;9.252;2023-05-14T03:25:20;37.20;;;34.80;;
1122;SDS011;548;48.778;9.252;2023-05-14T03:27:46;36.90;;;34.47;;
1122;SDS011;548;48.778;9.252;2023-05-14T03:30:13;35.43;;;33.23;;
1122;SDS011;548;48.778;9.252;2023-05-14T03:32:40;34.87;;;32.80;;
1122;SDS011;548;48.778;9.252;2023-05-14T03:35:09;33.33;;;31.40;;
1122;SDS011;548;48.778;9.252;2023-05-14T03:37:35;34.03;;;32.00;;
1122;SDS011;548;48.778;9.252;2023-05-14T03:40:02;32.00;;;30.07;;
1122;SDS011;548;48.778;9.252;2023-05-14T03:42:30;33.73;;;31.33;;
1122;SDS011;548;48.778;9.252;2023-05-14T03:44:56;31.97;;;30.07;;
1122;SDS011;548;48.778;9.252;2023-05-14T03:47:23;32.17;;;30.27;;
1122;SDS011;548;48.778;9.252;2023-05-14T03:49:50;32.27;;;30.30;;
1122;SDS011;548;48.778;9.252;2023-05-14T03:52:18;31.07;;;29.27;;
1122;SDS011;548;48.778;9.252;2023-05-14T03:54:45;30.33;;;28.50;;
1122;SDS011;548;48.778;9.252;2023-05-14T03:57:11;29.53;;;27.80;;
1122;SDS011;548;48.778;9.252;2023-05-14T03:59:38;29.10;;;27.40;;
1122;SDS011;548;48.778;9.252;2023-05-14T04:02:05;28.00;;;26.40;;
1122;SDS011;548;48.778;9.252;2023-05-14T04:04:31;26.93;;;25.33;;
1122;SDS011;548;48.778;9.252;2023-05-14T04:06:58;29.43;;;27.50;;
1122;SDS011;548;48.778;9.252;2023-05-14T04:09:26;27.77;;;25.97;;
1122;SDS011;548;48.778;9.252;2023-05-14T04:11:53;28.20;;;26.50;;
1122;SDS011;548;48.778;9.252;2023-05-14T04:14:20;26.80;;;25.00;;
1122;SDS011;548;48.778;9.252;2023-05-14T04:16:46;29.20;;;27.30;;
1122;SDS011;548;48.778;9.252;2023-05-14T04:19:13;27.97;;;26.23;;
1122;SDS011;548;48.778;9.252;2023-05-14T04:21:40;26.37;;;24.77;;
1122;SDS011;548;48.778;9.252;2023-05-14T04:24:06;27.83;;;26.13;;
1122;SDS011;548;48.778;9.252;2023-05-14T04:26:35;27.07;;;25.63;;
1122;SDS011;548;48.778;9.252;2023-05-14T04:29:01;27.77;;;26.07;;
1122;SDS011;548;48.778;9.252;2023-05-14T04:31:28;28.23;;;26.43;;
1122;SDS011;548;48.778;9.252;2023-05-14T04:33:55;26.00;;;24.40;;
1122;SDS011;548;48.778;9.252;2023-05-14T04:36:22;27.03;;;25.30;;
1122;SDS011;548;48.778;9.252;2023-05-14T04:38:49;27.13;;;25.43;;
1122;SDS011;548;48.778;9.252;2023-05-14T04:41:15;26.47;;;24.90;;
1122;SDS011;548;48.778;9.252;2023-05-14T04:43:44;26.33;;;24.60;;
1122;SDS011;548;48.778;9.252;2023-05-14T04:46:11;25.27;;;23.77;;
1122;SDS011;548;48.778;9.252;2023-05-14T04:48:38;25.90;;;24.40;;
1122;SDS011;548;48.778;9.252;2023-05-14T04:51:05;26.90;;;24.93;;
1122;SDS011;548;48.778;9.252;2023-05-14T04:53:31;24.93;;;23.37;;
1122;SDS011;548;48.778;9.252;2023-05-14T04:55:58;25.13;;;23.53;;
1122;SDS011;548;48.778;9.252;2023-05-14T04:58:25;24.40;;;22.93;;
1122;SDS011;548;48.778;9.252;2023-05-14T05:00:54;24.50;;;22.70;;
1122;SDS011;548;48.778;9.252;2023-05-14T05:03:21;25.10;;;23.30;;
1122;SDS011;548;48.778;9.252;2023-05-14T05:05:47;24.30;;;22.33;;
1122;SDS011;548;48.778;9.252;2023-05-14T05:08:14;24.57;;;23.17;;
1122;SDS011;548;48.778;9.252;2023-05-14T05:10:41;22.60;;;21.40;;
1122;SDS011;548;48.778;9.252;2023-05-14T05:13:08;23.77;;;21.87;;
1122;SDS011;548;48.778;9.252;2023-05-14T05:15:34;24.53;;;23.03;;
1122;SDS011;548;48.778;9.252;2023-05-14T05:18:02;23.03;;;21.73;;
1122;SDS011;548;48.778;9.252;2023-05-14T05:20:30;24.10;;;22.70;;
1122;SDS011;548;48.778;9.252;2023-05-14T05:22:57;23.70;;;22.20;;
1122;SDS011;548;48.778;9.252;2023-05-14T05:25:23;22.50;;;21.00;;
1122;SDS011;548;48.778;9.252;2023-05-14T05:27:50;24.53;;;23.03;;
1122;SDS011;548;48.778;9.252;2023-05-14T05:30:17;24.00;;;22.50;;
1122;SDS011;548;48.778;9.252;2023-05-14T05:32:43;23.40;;;21.90;;
1122;SDS011;548;48.778;9.252;2023-05-14T05:35:12;23.13;;;21.53;;
1122;SDS011;548;48.778;9.252;2023-05-14T05:37:38;23.40;;;21.77;;
1122;SDS011;548;48.778;9.252;2023-05-14T05:40:06;24.37;;;22.30;;
1122;SDS011;548;48.778;9.252;2023-05-14T05:42:34;23.40;;;22.00;;
1122;SDS011;548;48.778;9.252;2023-05-14T05:45:01;23.23;;;21.63;;
1122;SDS011;548;48.778;9.252;2023-05-14T05:47:27;23.00;;;21.57;;
1122;SDS011;548;48.778;9.252;2023-05-14T05:49:54;23.27;;;21.87;;
1122;SDS011;548;48.778;9.252;2023-05-14T05:52:22;22.30;;;20.90;;
1122;SDS011;548;48.778;9.252;2023-05-14T05:54:49;22.00;;;20.80;;
1122;SDS011;548;48.778;9.252;2023-05-14T05:57:16;21.80;;;20.50;;
1122;SDS011;548;48.778;9.252;2023-05-14T05:59:42;21.83;;;20.57;;
1122;SDS011;548;48.778;9.252;2023-05-14T06:02:09;23.40;;;21.73;;
1122;SDS011;548;48.778;9.252;2023-05-14T06:04:36;22.40;;;20.90;;
1122;SDS011;548;48.778;9.252;2023-05-14T06:07:02;21.57;;;20.27;;
1122;SDS011;548;48.778;9.252;2023-05-14T06:09:31;24.00;;;22.30;;
1122;SDS011;548;48.778;9.252;2023-05-14T06:11:57;22.13;;;20.70;;
1122;SDS011;548;48.778;9.252;2023-05-14T06:14:24;21.67;;;20.33;;
1122;SDS011;548;48.778;9.252;2023-05-14T06:16:51;21.33;;;19.80;;
1122;SDS011;548;48.778;9.252;2023-05-14T06:19:17;22.07;;;20.53;;
1122;SDS011;548;48.778;9.252;2023-05-14T06:21:44;20.63;;;19.30;;
1122;SDS011;548;48.778;9.252;2023-05-14T06:24:11;27.97;;;20.50;;
1122;SDS011;548;48.778;9.252;2023-05-14T06:26:39;21.40;;;20.20;;
1122;SDS011;548;48.778;9.252;2023-05-14T06:29:06;20.30;;;19.10;;
1122;SDS011;548;48.778;9.252;2023-05-14T06:31:32;20.23;;;18.93;;
1122;SDS011;548;48.778;9.252;2023-05-14T06:33:59;20.30;;;18.80;;
1122;SDS011;548;48.778;9.252;2023-05-14T06:36:26;20.70;;;18.97;;
1122;SDS011;548;48.778;9.252;2023-05-14T06:38:53;19.57;;;18.37;;
1122;SDS011;548;48.778;9.252;2023-05-14T06:41:19;19.77;;;18.57;;
1122;SDS011;548;48.778;9.252;2023-05-14T06:43:47;20.83;;;19.63;;
1122;SDS011;548;48.778;9.252;2023-05-14T06:46:14;20.60;;;19.40;;
1122;SDS011;548;48.778;9.252;2023-05-14T06:48:41;19.07;;;17.93;;
1122;SDS011;548;48.778;9.252;2023-05-14T06:51:08;19.87;;;18.67;;
1122;SDS011;548;48.778;9.252;2023-05-14T06:53:35;19.47;;;18.20;;
1122;SDS011;548;48.778;9.252;2023-05-14T06:56:01;19.20;;;18.00;;
1122;SDS011;548;48.778;9.252;2023-05-14T06:58:28;20.63;;;19.30;;
1122;SDS011;548;48.778;9.252;2023-05-14T07:00:56;18.93;;;17.73;;
1122;SDS011;548;48.778;9.252;2023-05-14T07:03:23;19.70;;;18.47;;
1122;SDS011;548;48.778;9.252;2023-05-14T07:05:50;18.70;;;17.60;;
1122;SDS011;548;48.778;9.252;2023-05-14T07:08:17;18.70;;;17.50;;
1122;SDS011;548;48.778;9.252;2023-05-14T07:10:43;19.30;;;17.93;;
1122;SDS011;548;48.778;9.252;2023-05-14T07:13:10;18.07;;;16.97;;
1122;SDS011;548;48.778;9.252;2023-05-14T07:15:37;19.80;;;18.27;;
1122;SDS011;548;48.778;9.252;2023-05-14T07:18:05;18.07;;;16.87;;
1122;SDS011;548;48.778;9.252;2023-05-14T07:23:30;20.63;;;19.33;;
1122;SDS011;548;48.778;9.252;2023-05-14T07:25:57;20.53;;;19.13;;
1122;SDS011;548;48.778;9.252;2023-05-14T07:28:23;19.50;;;18.20;;
1122;SDS011;548;48.778;9.252;2023-05-14T07:30:50;19.53;;;18.43;;
1122;SDS011;548;48.778;9.252;2023-05-14T07:33:18;19.20;;;18.10;;
1122;SDS011;548;48.778;9.252;2023-05-14T07:35:45;19.57;;;18.50;;
1122;SDS011;548;48.778;9.252;2023-05-14T07:38:11;17.40;;;16.50;;
1122;SDS011;548;48.778;9.252;2023-05-14T07:40:38;19.43;;;18.23;;
1122;SDS011;548;48.778;9.252;2023-05-14T07:43:05;19.97;;;18.57;;
1122;SDS011;548;48.778;9.252;2023-05-14T07:45:32;20.47;;;19.33;;
1122;SDS011;548;48.778;9.252;2023-05-14T07:47:58;19.90;;;18.70;;
1122;SDS011;548;48.778;9.252;2023-05-14T07:50:27;19.93;;;18.83;;
1122;SDS011;548;48.778;9.252;2023-05-14T07:52:53;19.30;;;18.20;;
1122;SDS011;548;48.778;9.252;2023-05-14T07:55:20;19.50;;;18.37;;
1122;SDS011;548;48.778;9.252;2023-05-14T07:57:47;17.97;;;17.07;;
1122;SDS011;548;48.778;9.252;2023-05-14T08:00:14;19.37;;;18.27;;
1122;SDS011;548;48.778;9.252;2023-05-14T08:02:41;18.43;;;17.40;;
1122;SDS011;548;48.778;9.252;2023-05-14T08:05:08;18.50;;;17.50;;
1122;SDS011;548;48.778;9.252;2023-05-14T08:07:36;18.27;;;17.10;;
1122;SDS011;548;48.778;9.252;2023-05-14T08:10:03;19.83;;;18.53;;
1122;SDS011;548;48.778;9.252;2023-05-14T08:12:31;18.63;;;17.23;;
1122;SDS011;548;48.778;9.252;2023-05-14T08:14:58;20.17;;;18.97;;
1122;SDS011;548;48.778;9.252;2023-05-14T08:17:25;19.30;;;18.10;;
1122;SDS011;548;48.778;9.252;2023-05-14T08:19:51;17.30;;;16.20;;
1122;SDS011;548;48.778;9.252;2023-05-14T08:22:18;19.83;;;18.70;;
1122;SDS011;548;48.778;9.252;2023-05-14T08:24:47;18.73;;;17.73;;
1122;SDS011;548;48.778;9.252;2023-05-14T08:27:13;18.47;;;17.47;;
1122;SDS011;548;48.778;9.252;2023-05-14T08:29:40;18.57;;;17.47;;
1122;SDS011;548;48.778;9.252;2023-05-14T08:32:07;19.60;;;18.50;;
1122;SDS011;548;48.778;9.252;2023-05-14T08:34:34;19.70;;;18.60;;
1122;SDS011;548;48.778;9.252;2023-05-14T08:37:00;19.20;;;18.10;;
1122;SDS011;548;48.778;9.252;2023-05-14T08:39:27;20.30;;;19.03;;
1122;SDS011;548;48.778;9.252;2023-05-14T08:41:55;19.10;;;17.70;;
1122;SDS011;548;48.778;9.252;2023-05-14T08:44:25;19.40;;;18.40;;
1122;SDS011;548;48.778;9.252;2023-05-14T08:46:57;19.13;;;18.00;;
1122;SDS011;548;48.778;9.252;2023-05-14T08:49:27;18.70;;;17.70;;
1122;SDS011;548;48.778;9.252;2023-05-14T08:52:02;19.90;;;18.80;;
1122;SDS011;548;48.778;9.252;2023-05-14T08:54:29;18.50;;;17.40;;
1122;SDS011;548;48.778;9.252;2023-05-14T08:56:57;20.53;;;19.33;;
1122;SDS011;548;48.778;9.252;2023-05-14T08:59:24;20.47;;;18.67;;
1122;SDS011;548;48.778;9.252;2023-05-14T09:01:52;18.07;;;17.17;;
1122;SDS011;548;48.778;9.252;2023-05-14T09:04:21;21.63;;;19.77;;
1122;SDS011;548;48.778;9.252;2023-05-14T09:06:49;19.73;;;18.63;;
1122;SDS011;548;48.778;9.252;2023-05-14T09:09:17;20.27;;;18.83;;
1122;SDS011;548;48.778;9.252;2023-05-14T09:11:46;19.33;;;18.33;;
1122;SDS011;548;48.778;9.252;2023-05-14T09:14:15;20.90;;;19.70;;
1122;SDS011;548;48.778;9.252;2023-05-14T09:16:42;21.27;;;20.17;;
1122;SDS011;548;48.778;9.252;2023-05-14T09:19:10;20.87;;;19.57;;
1122;SDS011;548;48.778;9.252;2023-05-14T09:21:38;19.80;;;18.80;;
1122;SDS011;548;48.778;9.252;2023-05-14T09:24:05;19.20;;;18.20;;
1122;SDS011;548;48.778;9.252;2023-05-14T09:26:33;19.87;;;18.57;;
1122;SDS011;548;48.778;9.252;2023-05-14T09:29:01;20.43;;;19.33;;
1122;SDS011;548;48.778;9.252;2023-05-14T09:31:29;20.30;;;19.20;;
1122;SDS011;548;48.778;9.252;2023-05-14T09:33:58;20.07;;;18.93;;
1122;SDS011;548;48.778;9.252;2023-05-14T09:36:26;20.70;;;19.27;;
1122;SDS011;548;48.778;9.252;2023-05-14T09:38:55;20.53;;;19.33;;
1122;SDS011;548;48.778;9.252;2023-05-14T09:41:21;18.40;;;17.30;;
1122;SDS011;548;48.778;9.252;2023-05-14T09:43:49;19.30;;;18.27;;
1122;SDS011;548;48.778;9.252;2023-05-14T09:46:16;19.53;;;18.23;;
1122;SDS011;548;48.778;9.252;2023-05-14T09:48:45;18.70;;;17.27;;
1122;SDS011;548;48.778;9.252;2023-05-14T09:51:13;17.00;;;16.20;;
1122;SDS011;548;48.778;9.252;2023-05-14T09:53:41;18.83;;;17.73;;
1122;SDS011;548;48.778;9.252;2023-05-14T09:56:09;19.17;;;18.03;;
1122;SDS011;548;48.778;9.252;2023-05-14T09:58:35;19.07;;;17.90;;
1122;SDS011;548;48.778;9.252;2023-05-14T10:01:02;19.20;;;18.03;;
1122;SDS011;548;48.778;9.252;2023-05-14T10:03:30;18.10;;;17.00;;
1122;SDS011;548;48.778;9.252;2023-05-14T10:05:59;17.63;;;16.63;;
1122;SDS011;548;48.778;9.252;2023-05-14T10:08:32;17.93;;;16.77;;
1122;SDS011;548;48.778;9.252;2023-05-14T10:11:01;19.50;;;18.20;;
1122;SDS011;548;48.778;9.252;2023-05-14T10:13:32;18.17;;;17.07;;
1122;SDS011;548;48.778;9.252;2023-05-14T10:16:05;18.90;;;17.80;;
1122;SDS011;548;48.778;9.252;2023-05-14T10:18:38;17.00;;;15.90;;
1122;SDS011;548;48.778;9.252;2023-05-14T10:21:11;16.80;;;15.70;;
1122;SDS011;548;48.778;9.252;2023-05-14T10:23:40;18.90;;;17.70;;
1122;SDS011;548;48.778;9.252;2023-05-14T10:26:07;16.20;;;15.30;;
1122;SDS011;548;48.778;9.252;2023-05-14T10:28:35;17.30;;;16.30;;
1122;SDS011;548;48.778;9.252;2023-05-14T10:31:02;16.63;;;15.57;;
1122;SDS011;548;48.778;9.252;2023-05-14T10:33:29;17.30;;;16.10;;
1122;SDS011;548;48.778;9.252;2023-05-14T10:36:12;17.87;;;16.97;;
1122;SDS011;548;48.778;9.252;2023-05-14T10:38:39;18.73;;;17.53;;
1122;SDS011;548;48.778;9.252;2023-05-14T10:41:06;17.97;;;17.07;;
1122;SDS011;548;48.778;9.252;2023-05-14T10:43:36;16.83;;;16.03;;
1122;SDS011;548;48.778;9.252;2023-05-14T10:46:03;17.90;;;16.90;;
1122;SDS011;548;48.778;9.252;2023-05-14T10:48:31;17.83;;;16.87;;
1122;SDS011;548;48.778;9.252;2023-05-14T10:50:59;18.60;;;17.43;;
1122;SDS011;548;48.778;9.252;2023-05-14T10:53:32;16.40;;;15.47;;
1122;SDS011;548;48.778;9.252;2023-05-14T10:56:03;17.67;;;16.67;;
1122;SDS011;548;48.778;9.252;2023-05-14T10:58:33;18.37;;;17.30;;
1122;SDS011;548;48.778;9.252;2023-05-14T11:01:01;16.30;;;15.40;;
1122;SDS011;548;48.778;9.252;2023-05-14T11:03:30;16.00;;;15.00;;
1122;SDS011;548;48.778;9.252;2023-05-14T11:05:58;17.50;;;16.60;;
1122;SDS011;548;48.778;9.252;2023-05-14T11:08:26;16.57;;;15.57;;
1122;SDS011;548;48.778;9.252;2023-05-14T11:10:55;16.63;;;15.77;;
1122;SDS011;548;48.778;9.252;2023-05-14T11:13:22;17.03;;;16.10;;
1122;SDS011;548;48.778;9.252;2023-05-14T11:15:50;18.20;;;17.20;;
1122;SDS011;548;48.778;9.252;2023-05-14T11:18:27;17.30;;;16.40;;
1122;SDS011;548;48.778;9.252;2023-05-14T11:20:56;17.10;;;16.27;;
1122;SDS011;548;48.778;9.252;2023-05-14T11:23:23;16.10;;;15.30;;
1122;SDS011;548;48.778;9.252;2023-05-14T11:25:50;17.20;;;16.20;;
1122;SDS011;548;48.778;9.252;2023-05-14T11:28:20;15.80;;;14.97;;
1122;SDS011;548;48.778;9.252;2023-05-14T11:30:47;17.67;;;16.80;;
1122;SDS011;548;48.778;9.252;2023-05-14T11:33:14;16.80;;;15.97;;
1122;SDS011;548;48.778;9.252;2023-05-14T11:35:41;16.57;;;15.77;;
1122;SDS011;548;48.778;9.252;2023-05-14T11:38:12;15.70;;;14.90;;
1122;SDS011;548;48.778;9.252;2023-05-14T11:40:39;17.10;;;16.00;;
1122;SDS011;548;48.778;9.252;2023-05-14T11:43:06;17.40;;;16.40;;
1122;SDS011;548;48.778;9.252;2023-05-14T11:45:35;15.47;;;14.60;;
1122;SDS011;548;48.778;9.252;2023-05-14T11:48:02;14.60;;;13.90;;
1122;SDS011;548;48.778;9.252;2023-05-14T11:50:36;15.37;;;14.57;;
1122;SDS011;548;48.778;9.252;2023-05-14T11:53:04;16.30;;;15.50;;
1122;SDS011;548;48.778;9.252;2023-05-14T11:55:32;17.00;;;15.90;;
1122;SDS011;548;48.778;9.252;2023-05-14T11:57:59;15.90;;;15.20;;
1122;SDS011;548;48.778;9.252;2023-05-14T12:00:26;16.37;;;15.47;;
1122;SDS011;548;48.778;9.252;2023-05-14T12:02:55;15.07;;;14.37;;
1122;SDS011;548;48.778;9.252;2023-05-14T12:05:21;16.27;;;15.47;;
1122;SDS011;548;48.778;9.252;2023-05-14T12:07:48;16.50;;;15.50;;
1122;SDS011;548;48.778;9.252;2023-05-14T12:10:15;14.87;;;14.17;;
1122;SDS011;548;48.778;9.252;2023-05-14T12:12:44;15.63;;;14.93;;
1122;SDS011;548;48.778;9.252;2023-05-14T12:15:12;15.07;;;14.27;;
1122;SDS011;548;48.778;9.252;2023-05-14T12:17:40;15.67;;;14.97;;
1122;SDS011;548;48.778;9.252;2023-05-14T12:20:09;14.60;;;13.90;;
1122;SDS011;548;48.778;9.252;2023-05-14T12:22:37;15.20;;;14.60;;
1122;SDS011;548;48.778;9.252;2023-05-14T12:25:08;14.23;;;13.53;;
1122;SDS011;548;48.778;9.252;2023-05-14T12:27:37;14.60;;;13.80;;
1122;SDS011;548;48.778;9.252;2023-05-14T12:30:04;14.10;;;13.50;;
1122;SDS011;548;48.778;9.252;2023-05-14T12:32:33;14.40;;;13.70;;
1122;SDS011;548;48.778;9.252;2023-05-14T12:35:00;14.40;;;13.50;;
1122;SDS011;548;48.778;9.252;2023-05-14T12:37:29;14.07;;;13.37;;
1122;SDS011;548;48.778;9.252;2023-05-14T12:39:55;14.67;;;13.97;;
1122;SDS011;548;48.778;9.252;2023-05-14T12:42:22;14.70;;;13.90;;
1122;SDS011;548;48.778;9.252;2023-05-14T12:44:49;14.00;;;13.40;;
1122;SDS011;548;48.778;9.252;2023-05-14T12:47:16;14.23;;;13.53;;
1122;SDS011;548;48.778;9.252;2023-05-14T12:49:42;15.00;;;14.30;;
1122;SDS011;548;48.778;9.252;2023-05-14T12:52:09;15.00;;;14.23;;
1122;SDS011;548;48.778;9.252;2023-05-14T12:54:37;14.00;;;13.33;;
1122;SDS011;548;48.778;9.252;2023-05-14T12:57:07;15.17;;;14.30;;
1122;SDS011;548;48.778;9.252;2023-05-14T12:59:34;14.17;;;13.37;;
1122;SDS011;548;48.778;9.252;2023-05-14T13:02:00;13.70;;;13.10;;
1122;SDS011;548;48.778;9.252;2023-05-14T13:04:27;14.27;;;13.57;;
1122;SDS011;548;48.778;9.252;2023-05-14T13:06:54;13.77;;;13.17;;
1122;SDS011;548;48.778;9.252;2023-05-14T13:09:20;13.80;;;13.20;;
1122;SDS011;548;48.778;9.252;2023-05-14T13:11:48;12.87;;;12.30;;
1122;SDS011;548;48.778;9.252;2023-05-14T13:14:15;14.00;;;13.40;;
1122;SDS011;548;48.778;9.252;2023-05-14T13:16:42;13.50;;;12.90;;
1122;SDS011;548;48.778;9.252;2023-05-14T13:19:09;15.00;;;14.30;;
1122;SDS011;548;48.778;9.252;2023-05-14T13:21:35;13.60;;;13.00;;
1122;SDS011;548;48.778;9.252;2023-05-14T13:24:02;13.70;;;13.13;;
1122;SDS011;548;48.778;9.252;2023-05-14T13:26:29;14.13;;;13.53;;
1122;SDS011;548;48.778;9.252;2023-05-14T13:28:57;13.50;;;12.93;;
1122;SDS011;548;48.778;9.252;2023-05-14T13:31:24;13.57;;;12.97;;
1122;SDS011;548;48.778;9.252;2023-05-14T13:33:51;13.87;;;13.27;;
1122;SDS011;548;48.778;9.252;2023-05-14T13:36:18;13.60;;;13.00;;
1122;SDS011;548;48.778;9.252;2023-05-14T13:38:44;14.30;;;13.70;;
1122;SDS011;548;48.778;9.252;2023-05-14T13:41:11;14.10;;;13.40;;
1122;SDS011;548;48.778;9.252;2023-05-14T13:43:38;13.73;;;13.13;;
1122;SDS011;548;48.778;9.252;2023-05-14T13:46:06;15.33;;;14.60;;
1122;SDS011;548;48.778;9.252;2023-05-14T13:48:33;15.13;;;14.33;;
1122;SDS011;548;48.778;9.252;2023-05-14T13:51:01;13.80;;;13.20;;
1122;SDS011;548;48.778;9.252;2023-05-14T13:53:28;14.23;;;13.63;;
1122;SDS011;548;48.778;9.252;2023-05-14T13:55:55;14.40;;;13.60;;
1122;SDS011;548;48.778;9.252;2023-05-14T13:58:22;14.00;;;13.30;;
1122;SDS011;548;48.778;9.252;2023-05-14T14:00:49;13.77;;;13.07;;
1122;SDS011;548;48.778;9.252;2023-05-14T14:03:17;13.87;;;12.80;;
1122;SDS011;548;48.778;9.252;2023-05-14T14:05:44;13.10;;;12.30;;
1122;SDS011;548;48.778;9.252;2023-05-14T14:08:11;12.50;;;11.97;;
1122;SDS011;548;48.778;9.252;2023-05-14T14:10:38;11.80;;;11.40;;
1122;SDS011;548;48.778;9.252;2023-05-14T14:13:06;13.10;;;12.50;;
1122;SDS011;548;48.778;9.252;2023-05-14T14:15:33;13.30;;;12.70;;
1122;SDS011;548;48.778;9.252;2023-05-14T14:18:00;12.70;;;12.20;;
1122;SDS011;548;48.778;9.252;2023-05-14T14:20:28;12.70;;;12.10;;
1122;SDS011;548;48.778;9.252;2023-05-14T14:22:55;14.33;;;13.73;;
1122;SDS011;548;48.778;9.252;2023-05-14T14:25:22;13.73;;;13.13;;
1122;SDS011;548;48.778;9.252;2023-05-14T14:27:49;14.20;;;13.13;;
1122;SDS011;548;48.778;9.252;2023-05-14T14:30:15;13.37;;;12.77;;
1122;SDS011;548;48.778;9.252;2023-05-14T14:32:43;13.53;;;13.03;;
1122;SDS011;548;48.778;9.252;2023-05-14T14:35:10;13.80;;;13.23;;
1122;SDS011;548;48.778;9.252;2023-05-14T14:37:39;14.00;;;13.27;;
1122;SDS011;548;48.778;9.252;2023-05-14T14:40:07;13.77;;;13.17;;
1122;SDS011;548;48.778;9.252;2023-05-14T14:42:34;13.50;;;13.00;;
1122;SDS011;548;48.778;9.252;2023-05-14T14:45:01;13.53;;;12.93;;
1122;SDS011;548;48.778;9.252;2023-05-14T14:47:28;13.43;;;12.83;;
1122;SDS011;548;48.778;9.252;2023-05-14T14:49:55;13.50;;;12.90;;
1122;SDS011;548;48.778;9.252;2023-05-14T14:52:22;13.70;;;13.10;;
1122;SDS011;548;48.778;9.252;2023-05-14T14:54:51;13.50;;;12.90;;
1122;SDS011;548;48.778;9.252;2023-05-14T14:57:18;14.10;;;13.50;;
1122;SDS011;548;48.778;9.252;2023-05-14T14:59:45;12.80;;;12.30;;
1122;SDS011;548;48.778;9.252;2023-05-14T15:02:12;12.47;;;11.90;;
1122;SDS011;548;48.778;9.252;2023-05-14T15:04:39;12.40;;;11.90;;
1122;SDS011;548;48.778;9.252;2023-05-14T15:07:06;13.07;;;12.57;;
1122;SDS011;548;48.778;9.252;2023-05-14T15:09:33;13.00;;;12.40;;
1122;SDS011;548;48.778;9.252;2023-05-14T15:12:01;12.80;;;12.20;;
1122;SDS011;548;48.778;9.252;2023-05-14T15:14:28;12.70;;;12.10;;
1122;SDS011;548;48.778;9.252;2023-05-14T15:16:54;12.50;;;11.90;;
1122;SDS011;548;48.778;9.252;2023-05-14T15:19:21;12.93;;;12.23;;
1122;SDS011;548;48.778;9.252;2023-05-14T15:21:48;12.30;;;11.80;;
1122;SDS011;548;48.778;9.252;2023-05-14T15:24:14;12.53;;;11.93;;
1122;SDS011;548;48.778;9.252;2023-05-14T15:26:41;12.77;;;12.07;;
1122;SDS011;548;48.778;9.252;2023-05-14T15:29:09;13.87;;;13.07;;
1122;SDS011;548;48.778;9.252;2023-05-14T15:31:36;13.40;;;12.70;;
1122;SDS011;548;48.778;9.252;2023-05-14T15:34:03;13.60;;;12.67;;
1122;SDS011;548;48.778;9.252;2023-05-14T15:36:30;12.63;;;12.03;;
1122;SDS011;548;48.778;9.252;2023-05-14T15:38:57;11.90;;;11.40;;